Time;durP1;ratioP1;P1;durP2;ratioP2;P2;SDS_P1;SDS_P2;PMS_P1;PMS_P2;Temp;Humidity;BMP_temperature;BMP_pressure;BME280_temperature;BME280_humidity;BME280_pressure;Samples;Min_cycle;Max_cycle;Signal;HPM_P1;HPM_P2
2024/01/31 00:02:15;;;;;;;1.75;1.00;;;17.30;55.80;;;;;;5051136;28;20262;-66
2024/01/31 00:04:41;;;;;;;2.03;0.95;;;17.20;55.80;;;;;;5051605;28;20269;-67
2024/01/31 00:07:06;;;;;;;2.10;1.10;;;17.20;55.80;;;;;;5051857;28;20242;-67
2024/01/31 00:09:32;;;;;;;2.35;1.33;;;17.20;55.80;;;;;;5050866;28;20204;-69
2024/01/31 00:11:57;;;;;;;2.00;1.10;;;17.20;55.80;;;;;;5051550;28;20175;-67
2024/01/31 00:14:23;;;;;;;2.55;1.10;;;17.20;55.80;;;;;;5051328;28;20182;-68
2024/01/31 00:16:48;;;;;;;2.88;1.30;;;17.20;55.80;;;;;;5050960;28;20703;-67
2024/01/31 00:19:14;;;;;;;1.30;1.00;;;17.20;55.70;;;;;;5051579;28;20176;-68
2024/01/31 00:21:41;;;;;;;2.15;1.02;;;17.10;55.70;;;;;;5051288;28;20179;-66
2024/01/31 00:24:07;;;;;;;1.42;0.80;;;17.10;55.70;;;;;;5051122;28;20246;-66
2024/01/31 00:26:32;;;;;;;2.55;1.15;;;17.10;55.70;;;;;;5051161;28;20770;-66
2024/01/31 00:28:58;;;;;;;1.92;1.13;;;17.10;55.70;;;;;;5051679;28;20187;-66
2024/01/31 00:31:24;;;;;;;2.08;1.00;;;17.10;55.70;;;;;;5050538;28;20179;-66
2024/01/31 00:33:49;;;;;;;1.80;1.20;;;17.10;55.80;;;;;;5051429;28;20177;-67
2024/01/31 00:36:15;;;;;;;1.80;1.27;;;17.10;55.80;;;;;;5052655;28;20171;-67
2024/01/31 00:38:40;;;;;;;1.63;1.20;;;17.10;55.80;;;;;;5054261;28;20182;-68
2024/01/31 00:41:06;;;;;;;2.08;1.27;;;17.10;55.80;;;;;;5055275;28;20175;-68
2024/01/31 00:43:32;;;;;;;2.55;1.35;;;17.10;55.70;;;;;;5054120;28;20225;-67
2024/01/31 00:45:58;;;;;;;2.95;1.52;;;17.00;55.70;;;;;;5055089;28;20690;-67
2024/01/31 00:48:23;;;;;;;3.53;1.10;;;17.10;55.80;;;;;;5054668;28;20213;-67
2024/01/31 00:50:49;;;;;;;1.25;0.90;;;17.00;55.70;;;;;;5054318;28;20175;-67
2024/01/31 00:53:14;;;;;;;1.48;1.00;;;17.00;55.70;;;;;;5055050;28;20175;-67
2024/01/31 00:55:41;;;;;;;1.33;0.90;;;17.00;55.70;;;;;;5054546;28;20222;-67
2024/01/31 00:58:06;;;;;;;1.25;1.05;;;17.00;55.70;;;;;;5054174;28;20190;-66
2024/01/31 01:00:32;;;;;;;1.25;0.90;;;17.00;55.70;;;;;;5054530;28;20179;-66
2024/01/31 01:02:57;;;;;;;1.77;0.90;;;17.00;55.70;;;;;;5054677;28;20182;-66
2024/01/31 01:05:23;;;;;;;1.70;1.20;;;17.00;55.70;;;;;;5053627;28;20638;-67
2024/01/31 01:07:49;;;;;;;1.40;0.88;;;17.00;55.70;;;;;;5054704;28;20743;-67
2024/01/31 01:10:15;;;;;;;1.52;1.10;;;17.00;55.70;;;;;;5054599;28;20191;-67
2024/01/31 01:12:42;;;;;;;2.22;0.90;;;16.90;55.70;;;;;;5053844;28;20185;-67
2024/01/31 01:15:08;;;;;;;1.95;0.93;;;17.00;55.60;;;;;;5054463;28;20662;-67
2024/01/31 01:17:34;;;;;;;2.75;1.17;;;16.90;55.60;;;;;;5054108;28;20193;-67
2024/01/31 01:20:00;;;;;;;1.55;0.85;;;16.90;55.60;;;;;;5053652;28;20254;-67
2024/01/31 01:22:26;;;;;;;3.00;1.33;;;16.90;55.60;;;;;;5054288;28;20705;-67
2024/01/31 01:24:52;;;;;;;1.77;0.93;;;16.90;55.60;;;;;;5054199;28;20705;-66
2024/01/31 01:27:18;;;;;;;2.22;0.90;;;16.90;55.60;;;;;;5053323;28;20211;-66
2024/01/31 01:29:44;;;;;;;1.35;0.90;;;16.90;55.60;;;;;;5054228;28;20519;-66
2024/01/31 01:32:09;;;;;;;1.00;0.90;;;16.90;55.60;;;;;;5054125;28;20183;-66
2024/01/31 01:34:35;;;;;;;1.35;1.13;;;16.90;55.60;;;;;;5053150;28;20761;-68
2024/01/31 01:37:00;;;;;;;1.42;1.20;;;16.90;55.60;;;;;;5054253;28;20171;-67
2024/01/31 01:39:26;;;;;;;1.90;1.02;;;16.90;55.70;;;;;;5053911;28;20669;-68
2024/01/31 01:41:52;;;;;;;1.42;0.80;;;16.90;55.60;;;;;;5053345;28;20637;-67
2024/01/31 01:44:17;;;;;;;1.10;0.77;;;16.80;55.60;;;;;;5053607;28;20192;-68
2024/01/31 01:46:43;;;;;;;2.03;1.10;;;16.90;55.60;;;;;;5053390;28;20203;-67
2024/01/31 01:49:18;;;;;;;0.68;0.68;;;16.80;55.60;;;;;;5054079;28;20186;-67
2024/01/31 01:51:44;;;;;;;0.93;0.70;;;16.80;55.60;;;;;;5052796;28;20186;-67
2024/01/31 01:54:12;;;;;;;1.48;0.90;;;16.80;55.60;;;;;;5051894;28;20178;-68
2024/01/31 01:56:41;;;;;;;4.35;0.80;;;16.80;55.50;;;;;;5052120;28;20231;-66
2024/01/31 01:59:07;;;;;;;1.42;0.82;;;16.80;55.60;;;;;;5036285;28;20171;-66
2024/01/31 02:01:32;;;;;;;1.10;0.82;;;16.80;55.60;;;;;;5052633;28;20190;-67
2024/01/31 02:03:58;;;;;;;1.05;0.70;;;16.80;55.60;;;;;;5053836;28;20178;-66
2024/01/31 02:06:24;;;;;;;1.30;0.70;;;16.80;55.60;;;;;;5053194;28;20183;-67
2024/01/31 02:08:49;;;;;;;1.15;0.80;;;16.80;56.20;;;;;;5052756;28;20194;-66
2024/01/31 02:11:15;;;;;;;1.15;0.98;;;16.80;55.50;;;;;;5053550;28;20217;-68
2024/01/31 02:13:40;;;;;;;1.85;1.02;;;16.70;55.50;;;;;;5053252;28;20660;-68
2024/01/31 02:16:06;;;;;;;1.25;0.90;;;16.70;55.50;;;;;;5052562;28;20178;-67
2024/01/31 02:18:32;;;;;;;1.60;0.90;;;16.80;55.60;;;;;;5053373;28;20167;-67
2024/01/31 02:20:57;;;;;;;0.85;0.50;;;16.70;55.50;;;;;;5053593;28;20249;-66
2024/01/31 02:23:23;;;;;;;1.10;0.90;;;16.70;55.50;;;;;;5052394;28;20175;-67
2024/01/31 02:25:51;;;;;;;1.27;0.85;;;16.80;55.60;;;;;;5053134;28;20274;-66
2024/01/31 02:28:17;;;;;;;1.73;0.73;;;16.70;55.50;;;;;;5052744;28;20211;-66
2024/01/31 02:30:42;;;;;;;1.98;0.82;;;16.70;55.50;;;;;;5052243;28;20262;-67
2024/01/31 02:33:08;;;;;;;1.45;0.90;;;16.70;55.50;;;;;;5052990;28;20187;-67
2024/01/31 02:35:34;;;;;;;1.33;0.82;;;16.70;55.50;;;;;;5052762;28;20179;-68
2024/01/31 02:38:00;;;;;;;1.58;0.70;;;16.70;55.50;;;;;;5052294;28;20218;-67
2024/01/31 02:40:25;;;;;;;2.20;1.10;;;16.60;55.50;;;;;;5052621;28;20646;-68
2024/01/31 02:42:51;;;;;;;1.23;0.63;;;16.70;55.50;;;;;;5052894;28;20278;-68
2024/01/31 02:45:17;;;;;;;0.68;0.65;;;16.70;55.50;;;;;;5051927;28;20171;-68
2024/01/31 02:47:42;;;;;;;1.10;0.70;;;16.60;55.50;;;;;;5052772;28;20319;-67
2024/01/31 02:50:08;;;;;;;1.33;0.80;;;16.60;55.50;;;;;;5052219;28;20195;-67
2024/01/31 02:52:34;;;;;;;2.17;1.20;;;16.70;55.50;;;;;;5052513;28;20179;-67
2024/01/31 02:55:01;;;;;;;0.88;0.70;;;16.60;55.50;;;;;;5052472;28;20226;-67
2024/01/31 02:57:26;;;;;;;1.23;0.70;;;16.70;55.50;;;;;;5051746;28;20202;-67
2024/01/31 02:59:52;;;;;;;1.58;0.73;;;16.60;55.50;;;;;;5052007;28;20194;-67
2024/01/31 03:02:17;;;;;;;0.65;0.65;;;16.60;55.50;;;;;;5052415;28;20189;-66
2024/01/31 03:04:43;;;;;;;1.15;0.90;;;16.60;55.50;;;;;;5051787;28;20171;-67
2024/01/31 03:07:10;;;;;;;0.73;0.73;;;16.60;55.50;;;;;;5052360;28;20203;-67
2024/01/31 03:09:36;;;;;;;1.52;0.70;;;16.60;55.40;;;;;;5052145;28;20179;-67
2024/01/31 03:12:04;;;;;;;0.98;0.60;;;16.60;55.40;;;;;;5051588;28;20171;-67
2024/01/31 03:14:30;;;;;;;2.13;0.80;;;16.60;55.40;;;;;;5051910;28;20205;-67
2024/01/31 03:16:56;;;;;;;1.15;0.65;;;16.50;55.50;;;;;;5052259;28;20642;-67
2024/01/31 03:19:21;;;;;;;0.88;0.80;;;16.60;55.50;;;;;;5051091;28;20190;-67
2024/01/31 03:21:47;;;;;;;1.10;0.65;;;16.50;55.40;;;;;;5052174;28;20179;-66
2024/01/31 03:24:12;;;;;;;1.38;0.90;;;16.50;55.40;;;;;;5052080;28;20182;-67
2024/01/31 03:26:38;;;;;;;0.93;0.80;;;16.50;55.40;;;;;;5050969;28;20218;-66
2024/01/31 03:29:03;;;;;;;2.50;0.73;;;16.60;55.50;;;;;;5052075;28;20175;-66
2024/01/31 03:31:29;;;;;;;0.95;0.70;;;16.60;55.50;;;;;;5051894;28;20262;-66
2024/01/31 03:33:54;;;;;;;2.92;0.90;;;16.60;55.50;;;;;;5051474;28;20171;-67
2024/01/31 03:36:20;;;;;;;1.27;0.80;;;16.50;55.40;;;;;;5051600;28;20179;-68
2024/01/31 03:38:45;;;;;;;0.80;0.70;;;16.50;55.50;;;;;;5051852;28;20181;-67
2024/01/31 03:41:11;;;;;;;0.90;0.60;;;16.50;55.40;;;;;;5051243;28;20190;-67
2024/01/31 03:43:36;;;;;;;1.02;0.60;;;16.50;55.50;;;;;;5051601;28;20209;-67
2024/01/31 03:46:06;;;;;;;1.08;0.75;;;16.50;55.40;;;;;;5051832;28;20207;-67
2024/01/31 03:48:31;;;;;;;1.80;0.90;;;16.50;55.40;;;;;;5051026;28;20211;-67
2024/01/31 03:50:58;;;;;;;0.90;0.70;;;16.50;55.40;;;;;;5051955;28;20224;-67
2024/01/31 03:53:25;;;;;;;1.00;0.50;;;16.50;55.40;;;;;;5050895;28;20194;-67
2024/01/31 03:55:50;;;;;;;0.82;0.60;;;16.40;55.40;;;;;;5051714;28;20274;-66
2024/01/31 03:58:16;;;;;;;0.70;0.70;;;16.40;55.40;;;;;;5051509;28;20179;-66
2024/01/31 04:00:42;;;;;;;1.48;0.98;;;16.50;55.40;;;;;;5051213;28;20171;-67
2024/01/31 04:03:07;;;;;;;1.98;0.80;;;16.40;55.40;;;;;;5051945;28;20213;-66
2024/01/31 04:05:33;;;;;;;1.05;0.50;;;16.40;55.40;;;;;;5051327;28;20202;-67
2024/01/31 04:07:58;;;;;;;1.33;0.68;;;16.40;55.40;;;;;;5050902;28;20219;-68
2024/01/31 04:10:24;;;;;;;1.15;0.68;;;16.40;56.00;;;;;;5051351;28;20182;-68
2024/01/31 04:12:50;;;;;;;0.60;0.60;;;16.40;55.40;;;;;;5055572;28;20182;-68
2024/01/31 04:15:15;;;;;;;1.38;0.60;;;16.40;55.40;;;;;;5055103;28;20183;-68
2024/01/31 04:17:41;;;;;;;0.85;0.60;;;16.40;56.00;;;;;;5055802;28;20517;-67
2024/01/31 04:20:07;;;;;;;1.55;0.75;;;16.40;55.40;;;;;;5055867;28;20175;-68
2024/01/31 04:22:32;;;;;;;0.95;0.57;;;16.40;55.40;;;;;;5054566;28;20183;-66
2024/01/31 04:24:58;;;;;;;2.08;0.60;;;16.40;55.40;;;;;;5055529;28;20185;-65
2024/01/31 04:27:24;;;;;;;0.82;0.50;;;16.40;55.40;;;;;;5054968;28;20202;-66
2024/01/31 04:29:49;;;;;;;0.88;0.68;;;16.40;55.40;;;;;;5054914;28;20175;-66
2024/01/31 04:32:15;;;;;;;0.55;0.55;;;16.40;55.40;;;;;;5055476;28;20171;-66
2024/01/31 04:34:41;;;;;;;1.25;0.60;;;16.40;55.40;;;;;;5055011;28;20575;-67
2024/01/31 04:37:06;;;;;;;1.08;0.50;;;16.40;55.40;;;;;;5054637;28;20650;-68
2024/01/31 04:39:32;;;;;;;1.38;0.50;;;16.30;55.40;;;;;;5054867;28;20626;-68
2024/01/31 04:41:57;;;;;;;1.55;0.75;;;16.40;55.40;;;;;;5055144;28;20594;-68
2024/01/31 04:44:23;;;;;;;0.77;0.57;;;16.40;55.40;;;;;;5054244;28;20538;-68
2024/01/31 04:46:49;;;;;;;0.55;0.45;;;16.40;55.40;;;;;;5055140;28;20218;-68
2024/01/31 04:49:15;;;;;;;0.77;0.55;;;16.30;55.30;;;;;;5055079;28;20182;-67
2024/01/31 04:51:41;;;;;;;1.58;0.63;;;16.30;55.40;;;;;;5053841;28;20179;-67
2024/01/31 04:54:07;;;;;;;1.25;0.80;;;16.30;55.40;;;;;;5054999;28;20222;-67
2024/01/31 04:56:32;;;;;;;1.00;0.60;;;16.30;55.40;;;;;;5054395;28;20717;-67
2024/01/31 04:58:58;;;;;;;0.80;0.70;;;16.30;56.00;;;;;;5054213;28;20210;-67
2024/01/31 05:01:23;;;;;;;0.52;0.50;;;16.30;55.30;;;;;;5054696;28;20270;-67
2024/01/31 05:03:49;;;;;;;0.55;0.55;;;16.30;55.40;;;;;;5054078;28;20265;-67
2024/01/31 05:06:14;;;;;;;0.93;0.60;;;16.30;55.40;;;;;;5054766;28;20175;-67
2024/01/31 05:08:40;;;;;;;0.88;0.52;;;16.30;55.30;;;;;;5054478;28;20266;-67
2024/01/31 05:11:06;;;;;;;1.08;0.60;;;16.30;55.30;;;;;;5053842;28;20246;-67
2024/01/31 05:13:32;;;;;;;0.55;0.50;;;16.30;55.40;;;;;;5054519;28;20646;-67
2024/01/31 05:15:57;;;;;;;0.85;0.52;;;16.30;55.40;;;;;;5054343;28;20228;-67
2024/01/31 05:18:23;;;;;;;0.90;0.77;;;16.30;55.30;;;;;;5053548;28;20653;-67
2024/01/31 05:20:48;;;;;;;0.60;0.60;;;16.20;55.30;;;;;;5054395;28;20179;-67
2024/01/31 05:23:14;;;;;;;1.25;0.68;;;16.30;55.40;;;;;;5054005;28;20190;-67
2024/01/31 05:25:40;;;;;;;1.67;0.70;;;16.30;55.40;;;;;;5053361;28;20179;-66
2024/01/31 05:28:05;;;;;;;1.15;0.60;;;16.20;55.30;;;;;;5054491;28;20716;-67
2024/01/31 05:30:31;;;;;;;1.17;0.75;;;16.20;55.30;;;;;;5054071;28;20167;-66
2024/01/31 05:32:56;;;;;;;2.28;0.70;;;16.20;55.30;;;;;;5053690;28;20182;-67
2024/01/31 05:35:22;;;;;;;1.02;0.57;;;16.20;55.30;;;;;;5053901;28;20193;-68
2024/01/31 05:37:50;;;;;;;0.50;0.50;;;16.20;55.30;;;;;;5054056;28;20178;-68
2024/01/31 05:40:16;;;;;;;0.95;0.57;;;16.20;55.30;;;;;;5053078;28;20864;-68
2024/01/31 05:42:42;;;;;;;0.90;0.90;;;16.20;55.30;;;;;;5054072;28;20264;-68
2024/01/31 05:45:08;;;;;;;0.88;0.60;;;16.20;55.40;;;;;;5054025;28;20626;-68
2024/01/31 05:47:34;;;;;;;0.80;0.73;;;16.20;55.30;;;;;;5052995;28;20221;-67
2024/01/31 05:49:59;;;;;;;0.80;0.70;;;16.20;55.30;;;;;;5053941;28;20609;-67
2024/01/31 05:52:25;;;;;;;0.73;0.50;;;16.20;55.30;;;;;;5053528;28;20179;-67
2024/01/31 05:54:50;;;;;;;0.65;0.52;;;16.20;55.30;;;;;;5053010;28;20306;-67
2024/01/31 05:57:16;;;;;;;0.60;0.60;;;16.20;55.40;;;;;;5053490;28;20179;-67
2024/01/31 05:59:41;;;;;;;0.70;0.70;;;16.10;55.30;;;;;;5053553;28;20194;-67
2024/01/31 06:02:07;;;;;;;0.40;0.40;;;16.20;55.40;;;;;;5052923;28;20179;-66
2024/01/31 06:04:33;;;;;;;1.10;0.50;;;16.20;55.30;;;;;;5053322;28;20193;-66
2024/01/31 06:06:58;;;;;;;0.73;0.60;;;16.10;55.30;;;;;;5052759;28;20249;-68
2024/01/31 06:09:24;;;;;;;1.00;0.77;;;16.10;55.30;;;;;;5053249;28;20190;-68
2024/01/31 06:11:49;;;;;;;1.33;0.60;;;16.20;55.40;;;;;;5053726;28;20205;-68
2024/01/31 06:14:15;;;;;;;0.50;0.50;;;16.10;55.30;;;;;;5052414;28;20213;-68
2024/01/31 06:16:41;;;;;;;0.80;0.60;;;16.20;55.40;;;;;;5053342;28;20183;-68
2024/01/31 06:19:08;;;;;;;0.45;0.45;;;16.10;55.30;;;;;;5053476;28;20650;-68
2024/01/31 06:21:34;;;;;;;0.95;0.57;;;16.10;55.30;;;;;;5052381;28;20175;-67
2024/01/31 06:23:59;;;;;;;0.55;0.55;;;16.10;55.40;;;;;;5053170;28;20167;-67
2024/01/31 06:26:28;;;;;;;0.52;0.52;;;16.10;55.30;;;;;;5052860;28;20630;-66
2024/01/31 06:28:53;;;;;;;0.70;0.70;;;16.10;55.30;;;;;;5052653;28;20184;-67
2024/01/31 06:31:27;;;;;;;2.58;0.70;;;16.10;55.30;;;;;;5053020;28;20217;-66
2024/01/31 06:33:53;;;;;;;1.17;0.60;;;16.10;55.30;;;;;;5052564;28;20179;-67
2024/01/31 06:36:19;;;;;;;0.68;0.57;;;16.10;55.30;;;;;;5052083;28;20549;-68
2024/01/31 06:38:46;;;;;;;0.90;0.65;;;16.10;55.40;;;;;;5053008;28;20171;-68
2024/01/31 06:41:15;;;;;;;1.55;0.70;;;16.10;55.30;;;;;;5053239;28;20621;-66
2024/01/31 06:43:40;;;;;;;0.38;0.38;;;16.00;55.30;;;;;;5052401;28;20170;-67
2024/01/31 06:46:06;;;;;;;0.90;0.60;;;16.10;55.40;;;;;;5052989;28;20183;-67
2024/01/31 06:48:31;;;;;;;0.60;0.50;;;16.00;55.30;;;;;;5052545;28;20221;-67
2024/01/31 06:50:57;;;;;;;0.68;0.68;;;16.10;55.30;;;;;;5053884;28;20175;-67
2024/01/31 06:53:22;;;;;;;0.93;0.60;;;16.10;55.30;;;;;;5056270;28;20179;-67
2024/01/31 06:55:48;;;;;;;1.02;0.50;;;16.10;55.20;;;;;;5055554;28;20318;-66
2024/01/31 06:58:13;;;;;;;0.80;0.60;;;16.20;55.30;;;;;;5052141;28;20167;-65
2024/01/31 07:00:45;;;;;;;1.05;0.57;;;16.20;55.20;;;;;;5053435;28;20198;-66
2024/01/31 07:03:14;;;;;;;0.70;0.60;;;16.20;55.20;;;;;;5053518;28;20171;-66
2024/01/31 07:05:41;;;;;;;0.57;0.47;;;16.20;55.10;;;;;;5052885;28;20662;-65
2024/01/31 07:08:06;;;;;;;0.70;0.70;;;16.30;55.20;;;;;;5051346;28;20673;-66
2024/01/31 07:10:32;;;;;;;0.85;0.60;;;16.20;55.10;;;;;;5051523;28;20178;-67
2024/01/31 07:13:00;;;;;;;0.88;0.82;;;16.30;55.20;;;;;;5052433;28;20216;-67
2024/01/31 07:15:25;;;;;;;0.60;0.47;;;16.20;55.10;;;;;;5052038;28;20228;-67
2024/01/31 07:17:51;;;;;;;0.82;0.70;;;16.20;55.10;;;;;;5051557;28;20171;-67
2024/01/31 07:20:17;;;;;;;0.60;0.50;;;16.20;55.20;;;;;;5051870;28;20262;-67
2024/01/31 07:22:42;;;;;;;0.77;0.70;;;16.20;55.20;;;;;;5052425;28;20175;-66
2024/01/31 07:25:13;;;;;;;0.50;0.50;;;16.30;55.30;;;;;;5051632;28;20234;-66
2024/01/31 07:27:40;;;;;;;1.13;0.80;;;16.20;55.20;;;;;;5051856;28;20245;-65
2024/01/31 07:30:08;;;;;;;0.93;0.65;;;16.30;55.20;;;;;;5052179;28;20230;-65
2024/01/31 07:32:33;;;;;;;0.55;0.50;;;16.40;55.20;;;;;;5051028;28;20265;-66
2024/01/31 07:34:59;;;;;;;0.85;0.52;;;16.40;55.20;;;;;;5051912;28;20266;-67
2024/01/31 07:37:24;;;;;;;0.50;0.40;;;16.40;55.00;;;;;;5051666;28;20228;-67
2024/01/31 07:39:50;;;;;;;0.90;0.50;;;16.40;55.00;;;;;;5051125;28;20186;-68
2024/01/31 07:42:15;;;;;;;0.50;0.50;;;16.50;55.00;;;;;;5051776;28;20183;-67
2024/01/31 07:44:41;;;;;;;0.60;0.60;;;16.50;55.00;;;;;;5051840;28;20225;-67
2024/01/31 07:47:06;;;;;;;0.30;0.30;;;16.40;54.90;;;;;;5051085;28;20211;-67
2024/01/31 07:49:32;;;;;;;0.60;0.60;;;16.40;55.00;;;;;;5051634;28;20171;-67
2024/01/31 07:51:58;;;;;;;1.38;0.60;;;16.40;55.00;;;;;;5052068;28;20171;-66
2024/01/31 07:54:23;;;;;;;0.50;0.50;;;16.40;55.10;;;;;;5050944;28;20254;-67
2024/01/31 07:56:49;;;;;;;0.70;0.60;;;16.40;55.20;;;;;;5051723;28;20306;-67
2024/01/31 07:59:14;;;;;;;0.95;0.68;;;16.40;55.10;;;;;;5051843;28;20179;-67
2024/01/31 08:01:40;;;;;;;0.30;0.30;;;16.40;55.20;;;;;;5050750;28;20213;-67
2024/01/31 08:04:06;;;;;;;0.57;0.50;;;16.40;55.20;;;;;;5051717;28;20228;-66
2024/01/31 08:06:32;;;;;;;0.43;0.43;;;16.40;55.70;;;;;;5051017;28;20221;-66
2024/01/31 08:08:57;;;;;;;0.55;0.50;;;16.40;55.00;;;;;;5051920;28;20587;-67
2024/01/31 08:11:23;;;;;;;1.10;0.60;;;16.50;55.00;;;;;;5051531;28;20179;-66
2024/01/31 08:13:48;;;;;;;0.70;0.63;;;16.50;55.00;;;;;;5051119;28;20178;-68
2024/01/31 08:16:15;;;;;;;0.90;0.55;;;16.50;55.00;;;;;;5051756;28;20187;-67
2024/01/31 08:18:40;;;;;;;0.77;0.60;;;16.60;55.00;;;;;;5051302;28;20179;-67
2024/01/31 08:21:06;;;;;;;1.48;0.68;;;16.50;54.90;;;;;;5050985;28;20175;-66
2024/01/31 08:23:32;;;;;;;1.08;0.50;;;16.50;54.90;;;;;;5051502;28;20182;-66
2024/01/31 08:25:57;;;;;;;0.65;0.50;;;16.40;54.90;;;;;;5051462;28;20668;-67
2024/01/31 08:28:23;;;;;;;0.50;0.47;;;16.40;55.00;;;;;;5050509;28;20214;-66
2024/01/31 08:30:48;;;;;;;0.77;0.40;;;16.40;55.00;;;;;;5051490;28;20639;-66
2024/01/31 08:33:14;;;;;;;0.40;0.40;;;16.40;55.10;;;;;;5051387;28;20179;-68
2024/01/31 08:35:39;;;;;;;1.08;0.50;;;16.40;55.10;;;;;;5050478;28;20198;-67
2024/01/31 08:38:05;;;;;;;0.75;0.55;;;16.40;55.00;;;;;;5051336;28;20183;-67
2024/01/31 08:40:30;;;;;;;1.05;0.77;;;16.40;54.90;;;;;;5051014;28;20258;-69
2024/01/31 08:42:58;;;;;;;0.45;0.40;;;16.50;55.00;;;;;;5050803;28;20274;-67
2024/01/31 08:45:27;;;;;;;0.70;0.65;;;16.50;55.00;;;;;;5050831;28;20174;-67
2024/01/31 08:47:52;;;;;;;1.75;0.68;;;16.50;55.00;;;;;;5050564;28;20235;-66
2024/01/31 08:50:18;;;;;;;1.25;0.50;;;16.50;55.00;;;;;;5049837;28;20201;-68
2024/01/31 08:52:43;;;;;;;0.55;0.52;;;16.50;55.10;;;;;;5050834;28;20183;-65
2024/01/31 08:55:09;;;;;;;1.95;0.70;;;16.50;55.10;;;;;;5050657;28;20217;-65
2024/01/31 08:57:34;;;;;;;1.65;0.65;;;16.50;55.70;;;;;;5051547;28;20304;-65
2024/01/31 09:00:01;;;;;;;2.67;0.52;;;16.50;55.00;;;;;;5054778;28;20175;-65
2024/01/31 09:02:28;;;;;;;3.20;0.95;;;16.50;55.10;;;;;;5054525;28;20187;-65
2024/01/31 09:04:53;;;;;;;1.15;0.70;;;16.50;55.10;;;;;;5054228;28;20175;-66
2024/01/31 09:07:19;;;;;;;1.40;0.57;;;16.50;55.10;;;;;;5054411;28;20218;-65
2024/01/31 09:09:44;;;;;;;0.70;0.50;;;16.60;55.20;;;;;;5054659;28;20175;-66
2024/01/31 09:12:10;;;;;;;1.92;0.60;;;16.50;55.10;;;;;;5053873;28;20174;-65
2024/01/31 09:14:36;;;;;;;1.17;0.70;;;16.60;55.10;;;;;;5054266;28;20175;-65
2024/01/31 09:17:01;;;;;;;2.90;0.68;;;16.60;55.10;;;;;;5053775;28;20171;-66
2024/01/31 09:19:27;;;;;;;3.10;0.80;;;16.70;55.20;;;;;;5053886;28;20179;-65
2024/01/31 09:21:52;;;;;;;1.10;0.60;;;16.70;55.10;;;;;;5054578;28;20171;-66
2024/01/31 09:24:18;;;;;;;3.85;0.70;;;16.70;55.20;;;;;;5053430;28;20174;-68
2024/01/31 09:26:43;;;;;;;2.40;0.70;;;16.70;55.10;;;;;;5054301;28;20206;-66
2024/01/31 09:29:10;;;;;;;2.92;0.85;;;16.70;55.10;;;;;;5054218;28;20186;-66
2024/01/31 09:31:35;;;;;;;1.80;0.70;;;16.70;55.20;;;;;;5053022;28;20187;-65
2024/01/31 09:34:01;;;;;;;3.22;0.82;;;16.60;55.30;;;;;;5054356;28;20187;-67
2024/01/31 09:36:26;;;;;;;4.53;0.80;;;16.60;55.30;;;;;;5054000;28;20222;-68
2024/01/31 09:38:52;;;;;;;1.05;0.50;;;16.60;55.30;;;;;;5053297;28;20186;-67
2024/01/31 09:41:17;;;;;;;0.43;0.35;;;16.60;55.40;;;;;;5053807;28;20214;-68
2024/01/31 09:43:46;;;;;;;2.72;0.70;;;16.60;55.40;;;;;;5053924;28;20209;-68
2024/01/31 09:46:12;;;;;;;2.45;0.80;;;16.50;55.40;;;;;;5053200;28;20178;-68
2024/01/31 09:48:38;;;;;;;2.35;0.75;;;16.60;55.40;;;;;;5053800;28;20590;-67
2024/01/31 09:51:04;;;;;;;1.35;0.77;;;16.60;55.50;;;;;;5052558;28;20182;-67
2024/01/31 09:53:36;;;;;;;0.70;0.40;;;16.60;55.50;;;;;;5051758;28;20179;-66
2024/01/31 09:56:02;;;;;;;2.33;0.75;;;16.60;55.40;;;;;;5053526;28;20253;-67
2024/01/31 09:58:27;;;;;;;2.08;0.85;;;16.60;55.60;;;;;;5053337;28;20210;-69
2024/01/31 10:00:53;;;;;;;2.03;0.88;;;16.60;55.70;;;;;;5053223;28;20175;-67
2024/01/31 10:03:18;;;;;;;1.88;0.80;;;16.60;55.70;;;;;;5052319;28;20266;-68
2024/01/31 10:05:44;;;;;;;2.67;0.98;;;16.60;55.50;;;;;;5053796;28;20545;-66
2024/01/31 10:08:10;;;;;;;1.70;0.90;;;16.60;55.60;;;;;;5052145;28;20215;-67
2024/01/31 10:10:36;;;;;;;0.52;0.52;;;16.60;55.50;;;;;;5053018;28;20677;-67
2024/01/31 10:13:03;;;;;;;1.17;0.60;;;16.60;55.60;;;;;;5053479;28;20183;-67
2024/01/31 10:15:29;;;;;;;0.80;0.50;;;16.50;55.50;;;;;;5052326;28;20579;-68
2024/01/31 10:17:54;;;;;;;4.57;0.80;;;16.60;55.50;;;;;;5053547;28;20187;-66
2024/01/31 10:20:20;;;;;;;1.65;0.70;;;16.50;55.60;;;;;;5052560;28;20178;-66
2024/01/31 10:22:46;;;;;;;1.02;0.70;;;16.50;55.60;;;;;;5053345;28;20210;-65
2024/01/31 10:25:18;;;;;;;0.50;0.50;;;16.50;55.60;;;;;;5053149;28;20536;-65
2024/01/31 10:27:46;;;;;;;3.28;0.70;;;16.50;55.60;;;;;;5052328;28;20297;-65
2024/01/31 10:30:13;;;;;;;2.17;0.95;;;16.50;55.60;;;;;;5052106;28;20184;-66
2024/01/31 10:32:39;;;;;;;2.20;0.88;;;16.50;55.70;;;;;;5052970;28;20182;-67
2024/01/31 10:35:05;;;;;;;4.57;0.70;;;16.50;55.60;;;;;;5050750;28;20534;-67
2024/01/31 10:37:30;;;;;;;0.70;0.70;;;16.50;55.70;;;;;;5052171;28;20233;-69
2024/01/31 10:39:56;;;;;;;5.47;1.17;;;16.50;55.70;;;;;;5052516;28;20172;-66
2024/01/31 10:42:22;;;;;;;1.30;0.77;;;16.50;55.90;;;;;;5051356;28;20178;-67
2024/01/31 10:44:50;;;;;;;2.42;0.80;;;16.40;56.00;;;;;;5054450;28;20182;-67
2024/01/31 10:47:16;;;;;;;3.28;0.80;;;16.40;55.80;;;;;;5050219;28;20571;-67
2024/01/31 10:49:42;;;;;;;3.08;0.90;;;16.50;56.00;;;;;;5070798;28;20630;-67
2024/01/31 10:52:11;;;;;;;2.50;1.20;;;16.50;55.90;;;;;;5068922;28;20199;-67
2024/01/31 10:54:39;;;;;;;1.23;0.65;;;16.60;55.90;;;;;;5035095;28;20201;-67
2024/01/31 10:57:05;;;;;;;1.10;0.88;;;16.70;55.90;;;;;;5050587;28;20243;-66
2024/01/31 10:59:36;;;;;;;0.88;0.80;;;16.80;55.90;;;;;;5052455;28;20175;-67
2024/01/31 11:02:01;;;;;;;1.65;0.77;;;16.90;56.20;;;;;;5065714;28;20170;-67
2024/01/31 11:04:27;;;;;;;1.75;0.85;;;17.20;55.30;;;;;;5071570;28;20208;-68
2024/01/31 11:06:53;;;;;;;0.80;0.80;;;17.40;55.00;;;;;;5072470;28;20693;-67
2024/01/31 11:09:22;;;;;;;1.27;0.88;;;17.60;54.60;;;;;;5072289;28;20544;-68
2024/01/31 11:12:04;;;;;;;1.10;0.88;;;17.70;54.30;;;;;;5065245;28;20198;-66
2024/01/31 11:14:32;;;;;;;0.88;0.70;;;17.90;54.10;;;;;;5050888;28;20181;-65
2024/01/31 11:17:34;;;;;;;2.28;0.82;;;18.00;53.90;;;;;;5050306;28;20174;-67
2024/01/31 11:20:00;;;;;;;2.03;0.85;;;18.10;53.80;;;;;;5031401;28;20168;-67
2024/01/31 11:22:26;;;;;;;1.30;0.98;;;18.10;53.70;;;;;;5031974;28;20195;-67
2024/01/31 11:24:55;;;;;;;1.50;0.90;;;18.20;53.70;;;;;;5031543;28;20180;-66
2024/01/31 11:27:21;;;;;;;0.98;0.70;;;18.20;53.60;;;;;;5030553;28;20627;-64
2024/01/31 11:29:50;;;;;;;2.00;1.00;;;18.30;53.60;;;;;;5032036;28;20172;-67
2024/01/31 11:32:25;;;;;;;1.13;0.80;;;18.40;53.30;;;;;;5031077;28;20237;-67
2024/01/31 11:35:04;;;;;;;1.45;1.08;;;18.50;53.30;;;;;;5032263;28;20182;-67
2024/01/31 11:37:37;;;;;;;2.35;1.17;;;18.50;53.20;;;;;;5031520;28;20237;-67
2024/01/31 11:40:03;;;;;;;2.53;1.42;;;18.50;53.30;;;;;;5031990;28;20172;-67
2024/01/31 11:42:28;;;;;;;1.98;1.40;;;18.50;53.40;;;;;;5031623;28;20175;-68
2024/01/31 11:44:54;;;;;;;1.48;0.90;;;18.50;53.50;;;;;;5031474;28;20176;-67
2024/01/31 11:47:19;;;;;;;1.88;1.10;;;18.50;53.50;;;;;;5030571;28;20620;-67
2024/01/31 11:49:45;;;;;;;1.38;1.10;;;18.60;53.50;;;;;;5032093;28;20187;-67
2024/01/31 11:52:10;;;;;;;2.15;1.13;;;18.60;53.50;;;;;;5043844;28;20174;-66
2024/01/31 11:54:36;;;;;;;2.45;1.15;;;18.60;53.50;;;;;;5071509;28;20171;-66
2024/01/31 11:57:02;;;;;;;2.90;1.63;;;18.60;53.60;;;;;;5071731;28;20304;-67
2024/01/31 11:59:28;;;;;;;1.02;0.93;;;18.60;53.60;;;;;;5069549;28;20178;-67
2024/01/31 12:01:53;;;;;;;2.05;1.40;;;18.70;53.70;;;;;;5070711;28;20194;-66
2024/01/31 12:04:22;;;;;;;1.30;1.20;;;18.70;53.60;;;;;;5070158;28;20668;-66
2024/01/31 12:06:47;;;;;;;3.85;1.58;;;18.70;53.70;;;;;;5070838;28;20206;-67
2024/01/31 12:09:13;;;;;;;1.77;1.30;;;18.80;53.60;;;;;;5071915;28;20208;-67
2024/01/31 12:11:38;;;;;;;2.78;1.63;;;18.80;53.60;;;;;;5070359;28;20253;-67
2024/01/31 12:14:04;;;;;;;1.80;1.38;;;18.80;53.60;;;;;;5070807;28;20652;-68
2024/01/31 12:16:42;;;;;;;1.67;1.20;;;18.80;53.60;;;;;;5071405;28;20178;-71
2024/01/31 12:19:08;;;;;;;2.13;1.50;;;18.90;53.50;;;;;;5071138;28;20668;-67
2024/01/31 12:21:42;;;;;;;2.13;1.30;;;18.90;53.50;;;;;;5070396;28;20174;-66
2024/01/31 12:24:08;;;;;;;2.55;1.30;;;19.00;53.40;;;;;;5071631;28;20184;-66
2024/01/31 12:26:34;;;;;;;2.10;1.40;;;19.00;53.40;;;;;;5071178;28;20611;-68
2024/01/31 12:28:59;;;;;;;1.92;1.42;;;19.00;53.40;;;;;;5071012;28;20237;-67
2024/01/31 12:31:25;;;;;;;3.35;1.73;;;19.00;53.40;;;;;;5071348;28;20174;-68
2024/01/31 12:33:51;;;;;;;2.10;1.23;;;19.10;53.40;;;;;;5074764;28;20540;-68
2024/01/31 12:36:16;;;;;;;1.27;1.17;;;19.10;53.40;;;;;;5075189;28;20184;-69
2024/01/31 12:38:42;;;;;;;2.75;1.38;;;19.10;53.20;;;;;;5073956;28;20170;-69
2024/01/31 12:41:08;;;;;;;1.40;1.13;;;19.10;53.20;;;;;;5074305;28;20171;-70
2024/01/31 12:43:33;;;;;;;4.28;1.50;;;19.20;53.20;;;;;;5074819;28;20193;-69